KZZV/ZZV METAR and TAF weather

Enter ICAO airport designator
Station Type Date Time Source
KZZV METAR 2020/07/08 21:53 UTC NOAA

KZZV 082153Z AUTO 29005KT 10SM CLR 32/21 A2992 RMK AO2 SLP123 T03170211


Station Type Date Time Source
KZZV Decoded METAR 2020/07/08 21:53 UTC NOAA

ZANESVILLE MUNICIPAL AIRPORT , OH, United States (KZZV) 39-57N 81-54W 268M
Jul 08, 2020 - 05:53 PM EDT / 2020.07.08 2153 UTC
Wind: from the WNW (290 degrees) at 6 MPH (5 KT):0
Visibility: 10 mile(s):0
Sky conditions: clear
Temperature: 89.1 F (31.7 C)
Heat index: 94.3 F (34.6 C):1
Dew Point: 70.0 F (21.1 C)
Relative Humidity: 53%
Pressure (altimeter): 29.92 in. Hg (1013 hPa)
ob: KZZV 082153Z AUTO 29005KT 10SM CLR 32/21 A2992 RMK AO2 SLP123 T03170211
cycle: 22

Station Type Date Time Source
KZZV TAF 2020/07/08 18:30 UTC NOAA

TAF KZZV 081726Z 0818/0918 VRB03KT P6SM SCT035
FM082100 VRB03KT P6SM VCTS BKN050CB
FM090000 VRB03KT P6SM SCT200
FM090600 00000KT 4SM BR SCT250
FM091200 VRB03KT P6SM SCT250

Example: see airport list